Sunday, May 27, 2018, 5:51 PM GMT
Back to Local

CYHM, Hamilton Airport

Location: , , Canada Lat: 43.167
Local Time: 5:51 PM GMT (17:51 GMT) Lon: -79.933
Time Zone: GMT Elev: 777 ft

Show me the last for .
Show Coded

Time T Td Feel RH Dir Speed Gust Alt SLP Vis Weather Sky Remarks
2018-05-27 17:00 79 70 83 74 170° 9 - 29.91 29.91 15 BKN028 BKN250 None
2018-05-27 16:00 77 68 80 73 220° 5 - 29.92 29.92 15 BKN025 BKN250 None
2018-05-27 15:00 75 68 79 78 Variable 2 - 29.93 29.93 12 BKN018 BKN023 None
2018-05-27 14:00 73 66 77 78 200° 6 - 29.93 29.93 12 FEW016 FEW140 SCT250 None
2018-05-27 13:00 70 64 - 83 190° 5 - 29.93 29.93 12 FEW130 SCT250 None
2018-05-27 12:00 63 59 - 88 90° 5 - 29.93 29.93 8 BKN020 BKN090 None
2018-05-27 11:00 59 57 - 93 40° 2 - 29.91 29.91 8 SCT090 BKN250 None
2018-05-27 10:00 55 55 - 100 50° 5 - 29.89 29.89 12 MIFG FEW090 SCT250 None
2018-05-27 09:00 57 55 - 93 30° 7 - 29.88 29.88 8 MIFG BKN091 BKN250 None
2018-05-27 08:00 59 57 - 93 40° 5 - 29.88 29.88 15 BKN094 BKN110 None
2018-05-27 07:00 59 57 - 93 60° 6 - 29.87 29.87 15 FEW100 None
2018-05-27 06:00 59 57 - 93 40° 7 - 29.87 29.86 15 SCT100 BKN150 None
2018-05-27 05:00 63 59 - 88 100° 5 - 29.87 29.87 15 SCT150 SCT250 None
2018-05-27 04:00 64 59 - 82 70° 5 - 29.87 29.87 15 BKN150 None
2018-05-27 03:00 66 59 - 77 50° 3 - 29.87 29.87 15 OVC140 None
2018-05-27 02:00 64 59 - 82 50° 8 - 29.87 29.86 15 BKN140 BKN160 None
2018-05-27 01:00 68 57 - 68 50° 9 - 29.84 29.84 15 BKN140 None
2018-05-27 00:00 75 61 78 60 170° 6 - 29.83 29.83 15 BKN150 BKN250 None
2018-05-26 23:00 79 61 80 54 230° 3 - 29.80 29.80 15 FEW050TCU FEW150 SCT250 None
2018-05-26 22:00 81 59 81 47 220° 8 - 29.79 29.79 15 FEW050TCU FEW180 BKN250 None
2018-05-26 21:00 81 57 81 44 250° 10 - 29.79 29.79 15 FEW050 FEW110 SCT180 BKN220 None
2018-05-26 20:00 77 63 79 61 230° 10 - 29.80 29.80 15 FEW072 BKN110 BKN170 None
2018-05-26 19:00 77 61 79 57 190° 10 - 29.81 29.81 15 FEW064 BKN098 BKN170 None
2018-05-26 18:00 77 63 79 61 180° 9 - 29.81 29.80 15 FEW060 OVC140 None

Support USWX by starting your Amazon purchase here.